sensor_id;sensor_type;location;lat;lon;timestamp;P1;P2;P0
55449;PMS5003;41318;58.724;50.180;2022-07-04T00:02:29;5.60;4.80;2.00
55449;PMS5003;41318;58.724;50.180;2022-07-04T00:05:19;6.80;4.20;2.20
55449;PMS5003;41318;58.724;50.180;2022-07-04T00:07:50;4.25;4.00;2.50
55449;PMS5003;41318;58.724;50.180;2022-07-04T00:10:21;5.00;5.00;3.00
55449;PMS5003;41318;58.724;50.180;2022-07-04T00:12:52;4.80;4.60;3.00
55449;PMS5003;41318;58.724;50.180;2022-07-04T00:15:23;6.00;5.80;3.20
55449;PMS5003;41318;58.724;50.180;2022-07-04T00:17:54;6.20;5.60;2.20
55449;PMS5003;41318;58.724;50.180;2022-07-04T00:20:44;4.40;4.40;2.80
55449;PMS5003;41318;58.724;50.180;2022-07-04T00:23:15;6.20;5.80;3.20
55449;PMS5003;41318;58.724;50.180;2022-07-04T00:25:46;3.20;2.80;2.00
55449;PMS5003;41318;58.724;50.180;2022-07-04T00:28:17;9.80;8.60;4.00
55449;PMS5003;41318;58.724;50.180;2022-07-04T00:30:48;7.00;6.60;5.00
55449;PMS5003;41318;58.724;50.180;2022-07-04T00:33:19;14.20;12.80;5.20
55449;PMS5003;41318;58.724;50.180;2022-07-04T00:35:50;34.00;29.75;19.75
55449;PMS5003;41318;58.724;50.180;2022-07-04T00:38:21;56.40;44.60;29.00
55449;PMS5003;41318;58.724;50.180;2022-07-04T00:40:52;119.50;98.00;51.25
55449;PMS5003;41318;58.724;50.180;2022-07-04T00:43:24;80.00;60.00;35.50
55449;PMS5003;41318;58.724;50.180;2022-07-04T00:45:55;33.80;31.60;22.00
55449;PMS5003;41318;58.724;50.180;2022-07-04T00:48:27;25.40;25.20;16.00
55449;PMS5003;41318;58.724;50.180;2022-07-04T00:50:58;52.00;42.00;27.00
55449;PMS5003;41318;58.724;50.180;2022-07-04T00:53:30;35.20;31.80;21.80
55449;PMS5003;41318;58.724;50.180;2022-07-04T00:56:01;33.20;31.60;21.00
55449;PMS5003;41318;58.724;50.180;2022-07-04T00:58:33;37.60;35.80;22.00
55449;PMS5003;41318;58.724;50.180;2022-07-04T01:01:04;39.60;34.40;23.00
55449;PMS5003;41318;58.724;50.180;2022-07-04T01:03:36;42.40;36.60;25.00
55449;PMS5003;41318;58.724;50.180;2022-07-04T01:06:08;27.20;26.00;17.20
55449;PMS5003;41318;58.724;50.180;2022-07-04T01:08:42;32.40;31.20;21.00
55449;PMS5003;41318;58.724;50.180;2022-07-04T01:11:13;17.40;17.00;10.80
55449;PMS5003;41318;58.724;50.180;2022-07-04T01:13:45;17.00;15.40;8.60
55449;PMS5003;41318;58.724;50.180;2022-07-04T01:16:16;17.60;17.20;10.20
55449;PMS5003;41318;58.724;50.180;2022-07-04T01:18:47;16.60;14.60;8.00
55449;PMS5003;41318;58.724;50.180;2022-07-04T01:21:37;11.80;11.80;9.60
55449;PMS5003;41318;58.724;50.180;2022-07-04T01:24:12;9.60;9.40;4.60
55449;PMS5003;41318;58.724;50.180;2022-07-04T01:26:43;19.20;14.80;9.00
55449;PMS5003;41318;58.724;50.180;2022-07-04T01:29:14;11.50;10.25;5.75
55449;PMS5003;41318;58.724;50.180;2022-07-04T01:31:45;11.00;9.75;5.00
55449;PMS5003;41318;58.724;50.180;2022-07-04T01:34:16;13.00;12.00;8.00
55449;PMS5003;41318;58.724;50.180;2022-07-04T01:36:47;10.00;10.00;5.00
55449;PMS5003;41318;58.724;50.180;2022-07-04T01:39:19;9.00;7.80;4.00
55449;PMS5003;41318;58.724;50.180;2022-07-04T01:41:51;10.20;9.00;5.00
55449;PMS5003;41318;58.724;50.180;2022-07-04T01:44:22;13.40;12.40;6.00
55449;PMS5003;41318;58.724;50.180;2022-07-04T01:46:53;20.00;17.20;8.80
55449;PMS5003;41318;58.724;50.180;2022-07-04T01:49:24;19.80;19.00;11.20
55449;PMS5003;41318;58.724;50.180;2022-07-04T01:51:55;29.60;26.80;13.80
55449;PMS5003;41318;58.724;50.180;2022-07-04T01:54:26;54.60;44.40;28.80
55449;PMS5003;41318;58.724;50.180;2022-07-04T01:56:57;36.40;32.20;18.40
55449;PMS5003;41318;58.724;50.180;2022-07-04T01:59:47;50.20;39.60;22.60
55449;PMS5003;41318;58.724;50.180;2022-07-04T02:02:40;53.20;42.80;24.60
55449;PMS5003;41318;58.724;50.180;2022-07-04T02:05:11;11.40;9.80;6.80
55449;PMS5003;41318;58.724;50.180;2022-07-04T02:07:42;18.40;15.40;8.00
55449;PMS5003;41318;58.724;50.180;2022-07-04T02:10:13;15.75;13.50;6.00
55449;PMS5003;41318;58.724;50.180;2022-07-04T02:12:44;7.40;6.20;3.00
55449;PMS5003;41318;58.724;50.180;2022-07-04T02:15:36;25.60;19.60;10.80
55449;PMS5003;41318;58.724;50.180;2022-07-04T02:18:09;14.00;12.80;6.80
55449;PMS5003;41318;58.724;50.180;2022-07-04T02:20:40;15.40;13.60;6.20
55449;PMS5003;41318;58.724;50.180;2022-07-04T02:23:12;49.00;38.60;24.20
55449;PMS5003;41318;58.724;50.180;2022-07-04T02:25:42;47.25;38.50;25.00
55449;PMS5003;41318;58.724;50.180;2022-07-04T02:28:13;32.20;31.60;21.80
55449;PMS5003;41318;58.724;50.180;2022-07-04T02:30:44;12.00;12.00;6.50
55449;PMS5003;41318;58.724;50.180;2022-07-04T02:33:16;61.00;44.80;24.60
55449;PMS5003;41318;58.724;50.180;2022-07-04T02:35:46;27.20;26.80;16.80
55449;PMS5003;41318;58.724;50.180;2022-07-04T02:38:17;12.25;11.50;4.25
55449;PMS5003;41318;58.724;50.180;2022-07-04T02:40:48;47.40;38.40;23.60
55449;PMS5003;41318;58.724;50.180;2022-07-04T02:43:19;20.80;18.00;9.80
55449;PMS5003;41318;58.724;50.180;2022-07-04T02:45:50;11.60;9.00;6.00
55449;PMS5003;41318;58.724;50.180;2022-07-04T02:48:21;6.00;6.00;4.00
55449;PMS5003;41318;58.724;50.180;2022-07-04T02:50:52;8.80;8.20;5.00
55449;PMS5003;41318;58.724;50.180;2022-07-04T02:53:42;7.00;6.80;4.00
55449;PMS5003;41318;58.724;50.180;2022-07-04T02:56:13;20.60;18.40;11.00
55449;PMS5003;41318;58.724;50.180;2022-07-04T02:58:44;10.00;10.00;5.00
55449;PMS5003;41318;58.724;50.180;2022-07-04T03:01:16;10.00;9.20;6.20
55449;PMS5003;41318;58.724;50.180;2022-07-04T03:03:48;5.20;5.20;3.00
55449;PMS5003;41318;58.724;50.180;2022-07-04T03:06:19;15.40;15.00;9.20
55449;PMS5003;41318;58.724;50.180;2022-07-04T03:08:50;10.40;9.80;5.80
55449;PMS5003;41318;58.724;50.180;2022-07-04T03:11:23;16.60;15.40;8.80
55449;PMS5003;41318;58.724;50.180;2022-07-04T03:13:54;6.80;6.80;3.80
55449;PMS5003;41318;58.724;50.180;2022-07-04T03:16:25;3.50;3.25;2.00
55449;PMS5003;41318;58.724;50.180;2022-07-04T03:18:56;6.33;6.00;4.00
55449;PMS5003;41318;58.724;50.180;2022-07-04T03:21:27;8.00;6.25;3.00
55449;PMS5003;41318;58.724;50.180;2022-07-04T03:23:58;6.75;6.00;4.50
55449;PMS5003;41318;58.724;50.180;2022-07-04T03:26:30;5.00;5.00;3.00
55449;PMS5003;41318;58.724;50.180;2022-07-04T03:29:01;9.40;6.40;3.40
55449;PMS5003;41318;58.724;50.180;2022-07-04T03:31:32;11.00;11.00;8.80
55449;PMS5003;41318;58.724;50.180;2022-07-04T03:34:03;20.60;19.00;9.80
55449;PMS5003;41318;58.724;50.180;2022-07-04T03:36:34;7.75;7.00;4.00
55449;PMS5003;41318;58.724;50.180;2022-07-04T03:39:24;40.20;31.20;17.20
55449;PMS5003;41318;58.724;50.180;2022-07-04T03:41:55;4.00;4.00;3.00
55449;PMS5003;41318;58.724;50.180;2022-07-04T03:44:26;5.00;4.50;3.00
55449;PMS5003;41318;58.724;50.180;2022-07-04T03:46:58;4.50;4.50;3.00
55449;PMS5003;41318;58.724;50.180;2022-07-04T03:49:29;6.00;5.00;3.00
55449;PMS5003;41318;58.724;50.180;2022-07-04T03:52:00;5.00;4.33;2.00
55449;PMS5003;41318;58.724;50.180;2022-07-04T03:54:31;5.75;5.75;3.50
55449;PMS5003;41318;58.724;50.180;2022-07-04T03:57:03;1.75;1.75;0.00
55449;PMS5003;41318;58.724;50.180;2022-07-04T03:59:34;13.40;12.20;8.80
55449;PMS5003;41318;58.724;50.180;2022-07-04T04:02:05;9.75;8.25;5.50
55449;PMS5003;41318;58.724;50.180;2022-07-04T04:04:55;19.40;18.40;13.00
55449;PMS5003;41318;58.724;50.180;2022-07-04T04:07:44;12.50;12.25;7.50
55449;PMS5003;41318;58.724;50.180;2022-07-04T04:10:15;9.25;9.25;6.25
55449;PMS5003;41318;58.724;50.180;2022-07-04T04:12:46;13.00;13.00;9.00
55449;PMS5003;41318;58.724;50.180;2022-07-04T04:15:18;9.25;9.25;5.50
55449;PMS5003;41318;58.724;50.180;2022-07-04T04:17:49;9.00;9.00;5.50
55449;PMS5003;41318;58.724;50.180;2022-07-04T04:20:20;2.25;1.75;0.50
55449;PMS5003;41318;58.724;50.180;2022-07-04T04:22:51;4.00;4.00;2.00
55449;PMS5003;41318;58.724;50.180;2022-07-04T04:25:22;9.50;8.00;3.75
55449;PMS5003;41318;58.724;50.180;2022-07-04T04:27:53;2.00;2.00;1.00
55449;PMS5003;41318;58.724;50.180;2022-07-04T04:30:24;5.00;4.00;3.00
55449;PMS5003;41318;58.724;50.180;2022-07-04T04:33:14;5.25;4.50;3.00
55449;PMS5003;41318;58.724;50.180;2022-07-04T04:35:46;3.50;3.50;2.25
55449;PMS5003;41318;58.724;50.180;2022-07-04T04:38:17;4.67;4.67;3.00
55449;PMS5003;41318;58.724;50.180;2022-07-04T04:40:48;23.40;20.80;11.80
55449;PMS5003;41318;58.724;50.180;2022-07-04T04:43:19;20.50;19.00;13.00
55449;PMS5003;41318;58.724;50.180;2022-07-04T04:45:50;8.33;8.00;4.00
55449;PMS5003;41318;58.724;50.180;2022-07-04T04:48:21;43.00;34.75;18.50
55449;PMS5003;41318;58.724;50.180;2022-07-04T04:50:52;66.60;51.80;29.60
55449;PMS5003;41318;58.724;50.180;2022-07-04T04:53:41;29.40;28.00;14.40
55449;PMS5003;41318;58.724;50.180;2022-07-04T04:56:12;21.50;20.50;10.50
55449;PMS5003;41318;58.724;50.180;2022-07-04T04:58:43;29.00;26.50;13.75
55449;PMS5003;41318;58.724;50.180;2022-07-04T05:01:32;7.00;6.25;3.00
55449;PMS5003;41318;58.724;50.180;2022-07-04T05:04:03;11.50;11.00;7.50
55449;PMS5003;41318;58.724;50.180;2022-07-04T05:06:34;11.50;10.50;5.75
55449;PMS5003;41318;58.724;50.180;2022-07-04T05:09:05;5.75;4.25;2.25
55449;PMS5003;41318;58.724;50.180;2022-07-04T05:11:54;6.50;6.50;4.25
55449;PMS5003;41318;58.724;50.180;2022-07-04T05:14:25;2.00;2.00;0.33
55449;PMS5003;41318;58.724;50.180;2022-07-04T05:16:56;2.25;2.25;2.00
55449;PMS5003;41318;58.724;50.180;2022-07-04T05:19:27;11.60;11.00;8.40
55449;PMS5003;41318;58.724;50.180;2022-07-04T05:21:58;10.25;10.25;4.50
55449;PMS5003;41318;58.724;50.180;2022-07-04T05:24:29;5.25;5.00;3.00
55449;PMS5003;41318;58.724;50.180;2022-07-04T05:27:00;5.25;4.50;2.50
55449;PMS5003;41318;58.724;50.180;2022-07-04T05:29:31;7.00;6.67;4.00
55449;PMS5003;41318;58.724;50.180;2022-07-04T05:32:20;7.25;6.00;2.25
55449;PMS5003;41318;58.724;50.180;2022-07-04T05:34:51;13.50;12.50;7.00
55449;PMS5003;41318;58.724;50.180;2022-07-04T05:37:41;7.00;5.75;2.75
55449;PMS5003;41318;58.724;50.180;2022-07-04T05:40:12;21.00;17.25;11.75
55449;PMS5003;41318;58.724;50.180;2022-07-04T05:43:01;8.25;7.25;4.50
55449;PMS5003;41318;58.724;50.180;2022-07-04T05:45:32;3.50;3.50;1.50
55449;PMS5003;41318;58.724;50.180;2022-07-04T05:48:03;12.33;11.67;7.67
55449;PMS5003;41318;58.724;50.180;2022-07-04T05:50:34;14.20;13.80;10.60
55449;PMS5003;41318;58.724;50.180;2022-07-04T05:53:06;14.20;13.20;9.60
55449;PMS5003;41318;58.724;50.180;2022-07-04T05:55:36;3.00;2.00;1.00
55449;PMS5003;41318;58.724;50.180;2022-07-04T05:58:07;8.50;7.00;5.00
55449;PMS5003;41318;58.724;50.180;2022-07-04T06:00:38;6.00;6.00;4.25
55449;PMS5003;41318;58.724;50.180;2022-07-04T06:03:10;7.50;7.00;4.25
55449;PMS5003;41318;58.724;50.180;2022-07-04T06:05:41;7.00;7.00;5.67
55449;PMS5003;41318;58.724;50.180;2022-07-04T06:08:30;5.50;5.50;3.50
55449;PMS5003;41318;58.724;50.180;2022-07-04T06:11:02;9.25;8.50;4.75
55449;PMS5003;41318;58.724;50.180;2022-07-04T06:13:52;6.75;6.75;4.50
55449;PMS5003;41318;58.724;50.180;2022-07-04T06:16:23;10.00;10.00;7.25
55449;PMS5003;41318;58.724;50.180;2022-07-04T06:18:54;2.00;2.00;1.00
55449;PMS5003;41318;58.724;50.180;2022-07-04T06:21:25;5.50;4.75;2.50
55449;PMS5003;41318;58.724;50.180;2022-07-04T06:23:56;1.33;1.00;0.00
55449;PMS5003;41318;58.724;50.180;2022-07-04T06:26:47;3.75;2.75;1.00
55449;PMS5003;41318;58.724;50.180;2022-07-04T06:29:18;2.00;2.00;1.00
55449;PMS5003;41318;58.724;50.180;2022-07-04T06:32:07;2.25;2.00;1.00
55449;PMS5003;41318;58.724;50.180;2022-07-04T06:34:38;3.00;3.00;1.75
55449;PMS5003;41318;58.724;50.180;2022-07-04T06:37:27;3.00;3.00;1.00
55449;PMS5003;41318;58.724;50.180;2022-07-04T06:40:16;4.00;4.00;3.00
55449;PMS5003;41318;58.724;50.180;2022-07-04T06:42:47;2.00;2.00;1.00
55449;PMS5003;41318;58.724;50.180;2022-07-04T06:45:37;3.00;3.00;2.00
55449;PMS5003;41318;58.724;50.180;2022-07-04T06:48:08;2.50;2.50;1.50
55449;PMS5003;41318;58.724;50.180;2022-07-04T06:50:39;2.75;2.50;1.00
55449;PMS5003;41318;58.724;50.180;2022-07-04T06:53:09;1.33;1.33;1.00
55449;PMS5003;41318;58.724;50.180;2022-07-04T06:55:41;2.00;2.00;1.00
55449;PMS5003;41318;58.724;50.180;2022-07-04T06:58:33;3.00;3.00;1.50
55449;PMS5003;41318;58.724;50.180;2022-07-04T07:01:04;3.00;3.00;1.00
55449;PMS5003;41318;58.724;50.180;2022-07-04T07:03:35;6.75;6.75;4.50
55449;PMS5003;41318;58.724;50.180;2022-07-04T07:06:07;14.00;13.00;9.25
55449;PMS5003;41318;58.724;50.180;2022-07-04T07:08:38;2.00;2.00;1.00
55449;PMS5003;41318;58.724;50.180;2022-07-04T07:11:09;1.67;1.67;1.00
55449;PMS5003;41318;58.724;50.180;2022-07-04T07:13:44;2.00;2.00;0.50
55449;PMS5003;41318;58.724;50.180;2022-07-04T07:16:15;0.00;0.00;0.00
55449;PMS5003;41318;58.724;50.180;2022-07-04T07:18:46;2.00;2.00;1.00
55449;PMS5003;41318;58.724;50.180;2022-07-04T07:21:19;4.00;3.75;2.00
55449;PMS5003;41318;58.724;50.180;2022-07-04T07:23:50;3.75;1.75;0.75
55449;PMS5003;41318;58.724;50.180;2022-07-04T07:26:21;2.00;2.00;1.00
55449;PMS5003;41318;58.724;50.180;2022-07-04T07:29:10;3.00;1.50;0.50
55449;PMS5003;41318;58.724;50.180;2022-07-04T07:31:41;2.50;2.50;1.50
55449;PMS5003;41318;58.724;50.180;2022-07-04T07:34:12;23.00;20.67;15.00
55449;PMS5003;41318;58.724;50.180;2022-07-04T07:37:02;8.75;7.75;5.00
55449;PMS5003;41318;58.724;50.180;2022-07-04T07:39:33;3.25;3.25;1.75
55449;PMS5003;41318;58.724;50.180;2022-07-04T07:42:04;2.00;2.00;1.25
55449;PMS5003;41318;58.724;50.180;2022-07-04T07:44:35;7.00;6.00;5.00
55449;PMS5003;41318;58.724;50.180;2022-07-04T07:47:06;17.25;15.75;12.00
55449;PMS5003;41318;58.724;50.180;2022-07-04T07:49:37;19.75;18.25;10.75
55449;PMS5003;41318;58.724;50.180;2022-07-04T07:52:07;6.00;4.33;3.00
55449;PMS5003;41318;58.724;50.180;2022-07-04T07:54:57;4.50;4.50;3.00
55449;PMS5003;41318;58.724;50.180;2022-07-04T07:57:28;9.50;9.00;6.00
55449;PMS5003;41318;58.724;50.180;2022-07-04T07:59:59;3.00;2.00;1.00
55449;PMS5003;41318;58.724;50.180;2022-07-04T08:02:49;2.50;1.75;1.00
55449;PMS5003;41318;58.724;50.180;2022-07-04T08:05:39;0.00;0.00;0.00
55449;PMS5003;41318;58.724;50.180;2022-07-04T08:08:10;2.00;2.00;1.25
55449;PMS5003;41318;58.724;50.180;2022-07-04T08:10:41;3.00;3.00;2.67
55449;PMS5003;41318;58.724;50.180;2022-07-04T08:13:12;3.00;3.00;2.00
55449;PMS5003;41318;58.724;50.180;2022-07-04T08:15:42;1.00;1.00;0.75
55449;PMS5003;41318;58.724;50.180;2022-07-04T08:18:13;2.67;2.00;1.00
55449;PMS5003;41318;58.724;50.180;2022-07-04T08:20:45;4.50;3.50;1.75
55449;PMS5003;41318;58.724;50.180;2022-07-04T08:23:16;4.00;4.00;2.25
55449;PMS5003;41318;58.724;50.180;2022-07-04T08:25:47;2.00;1.50;0.00
55449;PMS5003;41318;58.724;50.180;2022-07-04T08:28:18;2.00;2.00;1.00
55449;PMS5003;41318;58.724;50.180;2022-07-04T08:30:49;1.50;1.50;0.50
55449;PMS5003;41318;58.724;50.180;2022-07-04T08:33:20;0.50;0.50;0.00
55449;PMS5003;41318;58.724;50.180;2022-07-04T08:35:51;1.00;1.00;0.25
55449;PMS5003;41318;58.724;50.180;2022-07-04T08:38:24;1.00;1.00;1.00
55449;PMS5003;41318;58.724;50.180;2022-07-04T08:41:15;6.25;6.25;4.75
55449;PMS5003;41318;58.724;50.180;2022-07-04T08:43:47;7.50;6.75;4.50
55449;PMS5003;41318;58.724;50.180;2022-07-04T08:46:18;3.75;3.25;1.50
55449;PMS5003;41318;58.724;50.180;2022-07-04T08:48:51;2.00;2.00;1.00
55449;PMS5003;41318;58.724;50.180;2022-07-04T08:51:26;1.25;1.25;0.50
55449;PMS5003;41318;58.724;50.180;2022-07-04T08:53:59;2.00;2.00;1.00
55449;PMS5003;41318;58.724;50.180;2022-07-04T08:56:31;0.50;0.50;0.50
55449;PMS5003;41318;58.724;50.180;2022-07-04T08:59:40;1.00;1.00;0.50
55449;PMS5003;41318;58.724;50.180;2022-07-04T09:02:16;2.00;1.75;0.00
55449;PMS5003;41318;58.724;50.180;2022-07-04T09:05:06;1.50;1.50;0.75
55449;PMS5003;41318;58.724;50.180;2022-07-04T09:07:38;3.25;3.00;1.00
55449;PMS5003;41318;58.724;50.180;2022-07-04T09:10:09;5.00;4.50;3.00
55449;PMS5003;41318;58.724;50.180;2022-07-04T09:12:40;2.00;1.50;0.75
55449;PMS5003;41318;58.724;50.180;2022-07-04T09:15:29;22.50;22.00;16.00
55449;PMS5003;41318;58.724;50.180;2022-07-04T09:18:00;1.00;1.00;0.00
55449;PMS5003;41318;58.724;50.180;2022-07-04T09:20:32;4.25;3.75;3.00
55449;PMS5003;41318;58.724;50.180;2022-07-04T09:23:03;0.00;0.00;0.00
55449;PMS5003;41318;58.724;50.180;2022-07-04T09:25:47;1.00;1.00;0.50
55449;PMS5003;41318;58.724;50.180;2022-07-04T09:28:37;1.75;1.00;0.75
55449;PMS5003;41318;58.724;50.180;2022-07-04T09:31:21;1.00;0.50;0.00
55449;PMS5003;41318;58.724;50.180;2022-07-04T09:33:53;1.00;1.00;0.50
55449;PMS5003;41318;58.724;50.180;2022-07-04T09:36:26;2.00;2.00;1.00
55449;PMS5003;41318;58.724;50.180;2022-07-04T09:39:16;1.50;1.50;0.75
55449;PMS5003;41318;58.724;50.180;2022-07-04T09:44:42;4.75;4.75;3.25
55449;PMS5003;41318;58.724;50.180;2022-07-04T09:50:07;3.00;2.00;1.00
55449;PMS5003;41318;58.724;50.180;2022-07-04T09:55:22;1.00;1.00;0.00
55449;PMS5003;41318;58.724;50.180;2022-07-04T09:58:12;2.50;1.75;0.75
55449;PMS5003;41318;58.724;50.180;2022-07-04T10:00:44;4.00;4.00;1.50
55449;PMS5003;41318;58.724;50.180;2022-07-04T10:06:08;9.75;8.75;7.50
55449;PMS5003;41318;58.724;50.180;2022-07-04T10:08:43;2.00;1.25;1.00
55449;PMS5003;41318;58.724;50.180;2022-07-04T10:11:14;0.75;0.75;0.00
55449;PMS5003;41318;58.724;50.180;2022-07-04T10:13:45;1.25;1.25;1.00
55449;PMS5003;41318;58.724;50.180;2022-07-04T10:16:16;0.75;0.00;0.00
55449;PMS5003;41318;58.724;50.180;2022-07-04T10:18:47;0.25;0.00;0.00
55449;PMS5003;41318;58.724;50.180;2022-07-04T10:21:18;2.50;2.50;1.00
55449;PMS5003;41318;58.724;50.180;2022-07-04T10:23:52;1.67;1.67;0.67
55449;PMS5003;41318;58.724;50.180;2022-07-04T10:26:23;1.25;0.75;0.50
55449;PMS5003;41318;58.724;50.180;2022-07-04T10:28:54;1.75;1.50;0.50
55449;PMS5003;41318;58.724;50.180;2022-07-04T10:31:44;0.50;0.50;0.25
55449;PMS5003;41318;58.724;50.180;2022-07-04T10:34:15;0.75;0.75;0.25
55449;PMS5003;41318;58.724;50.180;2022-07-04T10:37:04;1.50;1.50;1.00
55449;PMS5003;41318;58.724;50.180;2022-07-04T10:39:35;1.50;1.50;1.00
55449;PMS5003;41318;58.724;50.180;2022-07-04T10:42:06;1.00;1.00;1.00
55449;PMS5003;41318;58.724;50.180;2022-07-04T10:44:38;0.00;0.00;0.00
55449;PMS5003;41318;58.724;50.180;2022-07-04T10:47:14;5.25;5.25;2.75
55449;PMS5003;41318;58.724;50.180;2022-07-04T10:49:52;2.75;2.75;1.50
55449;PMS5003;41318;58.724;50.180;2022-07-04T10:52:22;1.00;1.00;0.00
55449;PMS5003;41318;58.724;50.180;2022-07-04T10:55:12;2.75;2.75;1.50
55449;PMS5003;41318;58.724;50.180;2022-07-04T10:57:43;3.25;3.25;1.75
55449;PMS5003;41318;58.724;50.180;2022-07-04T11:00:35;2.00;2.00;1.00
55449;PMS5003;41318;58.724;50.180;2022-07-04T11:03:17;1.00;1.00;0.00
55449;PMS5003;41318;58.724;50.180;2022-07-04T11:05:48;2.50;2.50;2.50
55449;PMS5003;41318;58.724;50.180;2022-07-04T11:08:21;0.00;0.00;0.00
55449;PMS5003;41318;58.724;50.180;2022-07-04T11:11:42;28.25;25.00;11.75
55449;PMS5003;41318;58.724;50.180;2022-07-04T11:14:35;1.00;1.00;1.00
55449;PMS5003;41318;58.724;50.180;2022-07-04T11:17:11;1.00;1.00;0.50
55449;PMS5003;41318;58.724;50.180;2022-07-04T11:19:42;0.00;0.00;0.00
55449;PMS5003;41318;58.724;50.180;2022-07-04T11:22:21;0.75;0.75;0.25
55449;PMS5003;41318;58.724;50.180;2022-07-04T11:25:11;2.00;1.75;1.00
55449;PMS5003;41318;58.724;50.180;2022-07-04T11:27:42;0.00;0.00;0.00
55449;PMS5003;41318;58.724;50.180;2022-07-04T11:30:13;0.00;0.00;0.00
55449;PMS5003;41318;58.724;50.180;2022-07-04T11:32:44;4.00;4.00;4.00
55449;PMS5003;41318;58.724;50.180;2022-07-04T11:35:19;0.33;0.33;0.33
55449;PMS5003;41318;58.724;50.180;2022-07-04T11:37:56;3.00;3.00;3.00
55449;PMS5003;41318;58.724;50.180;2022-07-04T11:40:42;1.00;1.00;1.00
55449;PMS5003;41318;58.724;50.180;2022-07-04T11:43:32;1.75;1.75;1.50
55449;PMS5003;41318;58.724;50.180;2022-07-04T11:46:40;0.00;0.00;0.00
55449;PMS5003;41318;58.724;50.180;2022-07-04T11:49:12;0.33;0.33;0.00
55449;PMS5003;41318;58.724;50.180;2022-07-04T11:51:43;0.00;0.00;0.00
55449;PMS5003;41318;58.724;50.180;2022-07-04T11:54:33;2.25;1.75;0.75
55449;PMS5003;41318;58.724;50.180;2022-07-04T12:02:35;4.00;4.00;3.00
55449;PMS5003;41318;58.724;50.180;2022-07-04T12:05:10;0.75;0.75;0.00
55449;PMS5003;41318;58.724;50.180;2022-07-04T12:07:42;0.00;0.00;0.00
55449;PMS5003;41318;58.724;50.180;2022-07-04T12:10:14;1.00;1.00;1.00
55449;PMS5003;41318;58.724;50.180;2022-07-04T12:13:02;0.00;0.00;0.00
55449;PMS5003;41318;58.724;50.180;2022-07-04T12:15:37;0.00;0.00;0.00
55449;PMS5003;41318;58.724;50.180;2022-07-04T12:18:15;0.75;0.75;0.75
55449;PMS5003;41318;58.724;50.180;2022-07-04T12:20:48;0.00;0.00;0.00
55449;PMS5003;41318;58.724;50.180;2022-07-04T12:23:19;0.00;0.00;0.00
55449;PMS5003;41318;58.724;50.180;2022-07-04T12:26:10;1.00;1.00;0.75
55449;PMS5003;41318;58.724;50.180;2022-07-04T12:28:41;0.00;0.00;0.00
55449;PMS5003;41318;58.724;50.180;2022-07-04T12:31:41;0.00;0.00;0.00
55449;PMS5003;41318;58.724;50.180;2022-07-04T12:34:15;0.50;0.50;0.00
55449;PMS5003;41318;58.724;50.180;2022-07-04T12:36:51;0.00;0.00;0.00
55449;PMS5003;41318;58.724;50.180;2022-07-04T12:39:29;0.00;0.00;0.00
55449;PMS5003;41318;58.724;50.180;2022-07-04T12:42:04;0.00;0.00;0.00
55449;PMS5003;41318;58.724;50.180;2022-07-04T12:44:36;1.00;1.00;1.00
55449;PMS5003;41318;58.724;50.180;2022-07-04T12:47:26;0.00;0.00;0.00
55449;PMS5003;41318;58.724;50.180;2022-07-04T12:49:56;0.00;0.00;0.00
55449;PMS5003;41318;58.724;50.180;2022-07-04T12:52:27;0.00;0.00;0.00
55449;PMS5003;41318;58.724;50.180;2022-07-04T12:55:06;0.00;0.00;0.00
55449;PMS5003;41318;58.724;50.180;2022-07-04T12:57:37;1.75;1.75;1.00
55449;PMS5003;41318;58.724;50.180;2022-07-04T13:00:27;1.00;1.00;1.00
55449;PMS5003;41318;58.724;50.180;2022-07-04T13:02:57;2.00;2.00;2.00
55449;PMS5003;41318;58.724;50.180;2022-07-04T13:05:28;0.00;0.00;0.00
55449;PMS5003;41318;58.724;50.180;2022-07-04T13:07:59;0.75;0.75;0.75
55449;PMS5003;41318;58.724;50.180;2022-07-04T13:10:30;3.67;3.67;3.00
55449;PMS5003;41318;58.724;50.180;2022-07-04T13:13:03;7.25;7.25;6.00
55449;PMS5003;41318;58.724;50.180;2022-07-04T13:15:35;1.00;1.00;1.00
55449;PMS5003;41318;58.724;50.180;2022-07-04T13:18:06;0.00;0.00;0.00
55449;PMS5003;41318;58.724;50.180;2022-07-04T13:20:36;1.75;1.75;1.75
55449;PMS5003;41318;58.724;50.180;2022-07-04T13:23:07;1.00;1.00;1.00
55449;PMS5003;41318;58.724;50.180;2022-07-04T13:25:38;0.00;0.00;0.00
55449;PMS5003;41318;58.724;50.180;2022-07-04T13:28:27;0.75;0.75;0.00
55449;PMS5003;41318;58.724;50.180;2022-07-04T13:30:58;0.00;0.00;0.00
55449;PMS5003;41318;58.724;50.180;2022-07-04T13:33:29;2.00;2.00;2.00
55449;PMS5003;41318;58.724;50.180;2022-07-04T13:36:00;6.75;6.75;6.00
55449;PMS5003;41318;58.724;50.180;2022-07-04T13:38:31;0.33;0.33;0.00
55449;PMS5003;41318;58.724;50.180;2022-07-04T13:41:02;1.00;1.00;0.00
55449;PMS5003;41318;58.724;50.180;2022-07-04T13:43:52;1.00;1.00;1.00
55449;PMS5003;41318;58.724;50.180;2022-07-04T13:46:26;0.00;0.00;0.00
55449;PMS5003;41318;58.724;50.180;2022-07-04T13:48:57;0.50;0.50;0.50
55449;PMS5003;41318;58.724;50.180;2022-07-04T13:51:47;11.00;11.00;7.75
55449;PMS5003;41318;58.724;50.180;2022-07-04T13:54:18;0.75;0.75;0.75
55449;PMS5003;41318;58.724;50.180;2022-07-04T13:56:49;0.25;0.25;0.00
55449;PMS5003;41318;58.724;50.180;2022-07-04T13:59:20;0.00;0.00;0.00
55449;PMS5003;41318;58.724;50.180;2022-07-04T14:01:51;0.50;0.50;0.50
55449;PMS5003;41318;58.724;50.180;2022-07-04T14:04:40;0.00;0.00;0.00
55449;PMS5003;41318;58.724;50.180;2022-07-04T14:07:11;0.00;0.00;0.00
55449;PMS5003;41318;58.724;50.180;2022-07-04T14:09:42;0.25;0.25;0.00
55449;PMS5003;41318;58.724;50.180;2022-07-04T14:12:13;0.00;0.00;0.00
55449;PMS5003;41318;58.724;50.180;2022-07-04T14:14:44;0.00;0.00;0.00
55449;PMS5003;41318;58.724;50.180;2022-07-04T14:17:15;2.00;2.00;2.00
55449;PMS5003;41318;58.724;50.180;2022-07-04T14:20:05;0.00;0.00;0.00
55449;PMS5003;41318;58.724;50.180;2022-07-04T14:22:38;0.00;0.00;0.00
55449;PMS5003;41318;58.724;50.180;2022-07-04T14:25:10;0.00;0.00;0.00
55449;PMS5003;41318;58.724;50.180;2022-07-04T14:27:41;0.00;0.00;0.00
55449;PMS5003;41318;58.724;50.180;2022-07-04T14:30:12;0.00;0.00;0.00
55449;PMS5003;41318;58.724;50.180;2022-07-04T14:32:43;0.00;0.00;0.00
55449;PMS5003;41318;58.724;50.180;2022-07-04T14:35:14;0.00;0.00;0.00
55449;PMS5003;41318;58.724;50.180;2022-07-04T14:37:45;0.00;0.00;0.00
55449;PMS5003;41318;58.724;50.180;2022-07-04T14:40:16;0.00;0.00;0.00
55449;PMS5003;41318;58.724;50.180;2022-07-04T14:42:48;0.00;0.00;0.00
55449;PMS5003;41318;58.724;50.180;2022-07-04T14:45:18;0.00;0.00;0.00
55449;PMS5003;41318;58.724;50.180;2022-07-04T14:47:49;0.00;0.00;0.00
55449;PMS5003;41318;58.724;50.180;2022-07-04T14:50:20;0.00;0.00;0.00
55449;PMS5003;41318;58.724;50.180;2022-07-04T14:52:51;17.50;17.50;12.00
55449;PMS5003;41318;58.724;50.180;2022-07-04T14:55:40;0.00;0.00;0.00
55449;PMS5003;41318;58.724;50.180;2022-07-04T14:58:11;0.00;0.00;0.00
55449;PMS5003;41318;58.724;50.180;2022-07-04T15:01:02;0.00;0.00;0.00
55449;PMS5003;41318;58.724;50.180;2022-07-04T15:03:33;0.00;0.00;0.00